Time;durP1;ratioP1;P1;durP2;ratioP2;P2;SDS_P1;SDS_P2;PMS_P1;PMS_P2;Temp;Humidity;BMP_temperature;BMP_pressure;BME280_temperature;BME280_humidity;BME280_pressure;Samples;Min_cycle;Max_cycle;Signal;HPM_P1;HPM_P2
2023/12/07 00:00:04;;;;;;;33.58;23.85;;;2.30;99.90;;;;;;2095388;28;20130;-80
2023/12/07 00:01:05;;;;;;;31.58;23.50;;;2.30;99.90;;;;;;2097396;28;20032;-83
2023/12/07 00:02:05;;;;;;;37.05;25.00;;;2.30;99.90;;;;;;2096844;28;20351;-84
2023/12/07 00:03:06;;;;;;;33.75;23.70;;;2.20;99.90;;;;;;2096507;28;20056;-82
2023/12/07 00:04:07;;;;;;;35.75;24.48;;;2.20;99.90;;;;;;2099002;28;20023;-82
2023/12/07 00:05:08;;;;;;;34.45;23.88;;;2.20;99.90;;;;;;2094338;28;20493;-81
2023/12/07 00:06:09;;;;;;;33.33;23.65;;;2.20;99.90;;;;;;2095567;28;20024;-83
2023/12/07 00:07:09;;;;;;;33.78;24.33;;;2.20;99.90;;;;;;2096898;28;20028;-81
2023/12/07 00:08:10;;;;;;;34.45;23.92;;;2.20;99.90;;;;;;2091887;28;20029;-83
2023/12/07 00:09:11;;;;;;;31.92;23.83;;;2.30;99.90;;;;;;2093492;28;20028;-82
2023/12/07 00:10:12;;;;;;;33.92;24.80;;;2.20;99.90;;;;;;2096631;28;20031;-82
2023/12/07 00:11:12;;;;;;;32.63;24.42;;;2.30;99.90;;;;;;2094347;28;20024;-82
2023/12/07 00:12:13;;;;;;;34.47;24.77;;;2.30;99.90;;;;;;2093788;28;20024;-82
2023/12/07 00:13:13;;;;;;;32.70;23.77;;;2.30;99.90;;;;;;2098345;28;20050;-83
2023/12/07 00:14:14;;;;;;;34.22;24.88;;;2.30;99.90;;;;;;2097941;28;20069;-81
2023/12/07 00:15:15;;;;;;;32.63;23.80;;;2.20;99.90;;;;;;2095299;28;20020;-82
2023/12/07 00:16:15;;;;;;;35.13;24.73;;;2.20;99.90;;;;;;2095223;28;20056;-83
2023/12/07 00:17:16;;;;;;;36.15;24.65;;;2.30;99.90;;;;;;2092212;28;20032;-82
2023/12/07 00:18:16;;;;;;;36.13;25.08;;;2.30;99.90;;;;;;2094521;28;20025;-82
2023/12/07 00:19:17;;;;;;;34.42;24.50;;;2.30;99.90;;;;;;2097666;28;20032;-82
2023/12/07 00:20:17;;;;;;;35.72;24.30;;;2.30;99.90;;;;;;2097032;28;20093;-83
2023/12/07 00:21:18;;;;;;;35.75;25.02;;;2.30;99.90;;;;;;2094542;28;20425;-83
2023/12/07 00:22:18;;;;;;;34.45;24.50;;;2.30;99.90;;;;;;2097504;28;20608;-83
2023/12/07 00:23:19;;;;;;;36.72;25.17;;;2.20;99.90;;;;;;2089008;28;20033;-83
2023/12/07 00:24:20;;;;;;;36.65;25.15;;;2.20;99.90;;;;;;2089134;28;20035;-80
2023/12/07 00:25:20;;;;;;;33.83;24.52;;;2.30;99.90;;;;;;2093044;28;20071;-82
2023/12/07 00:26:21;;;;;;;32.72;24.23;;;2.30;99.90;;;;;;2097575;28;20347;-82
2023/12/07 00:27:21;;;;;;;33.25;23.77;;;2.30;99.90;;;;;;2098198;28;20047;-83
2023/12/07 00:28:22;;;;;;;33.65;24.20;;;2.30;99.90;;;;;;2095010;28;20024;-83
2023/12/07 00:29:22;;;;;;;35.50;24.67;;;2.30;99.90;;;;;;2097508;28;20036;-83
2023/12/07 00:30:23;;;;;;;35.08;25.10;;;2.30;99.90;;;;;;2088697;28;20074;-81
2023/12/07 00:31:23;;;;;;;35.55;25.05;;;2.30;99.90;;;;;;2096967;28;20024;-83
2023/12/07 00:32:26;;;;;;;36.83;25.25;;;2.30;99.90;;;;;;2088966;28;20032;-82
2023/12/07 00:33:27;;;;;;;34.40;24.38;;;2.30;99.90;;;;;;2097388;28;20074;-82
2023/12/07 00:34:28;;;;;;;34.28;24.35;;;2.30;99.90;;;;;;2097337;28;20028;-81
2023/12/07 00:35:28;;;;;;;36.15;25.13;;;2.30;99.90;;;;;;2094177;28;20525;-82
2023/12/07 00:36:29;;;;;;;36.38;25.08;;;2.30;99.90;;;;;;2087525;28;20025;-82
2023/12/07 00:37:30;;;;;;;36.13;25.30;;;2.30;99.90;;;;;;2088953;28;20031;-81
2023/12/07 00:38:32;;;;;;;35.05;24.80;;;2.30;99.90;;;;;;2095021;28;20078;-82
2023/12/07 00:39:33;;;;;;;35.65;25.58;;;2.30;99.90;;;;;;2095498;28;20024;-82
2023/12/07 00:40:36;;;;;;;34.75;24.95;;;2.30;99.90;;;;;;2098026;28;20050;-82
2023/12/07 00:41:37;;;;;;;35.92;25.33;;;2.30;99.90;;;;;;2094194;28;20048;-80
2023/12/07 00:42:37;;;;;;;35.00;24.92;;;2.20;99.90;;;;;;2092206;28;20047;-82
2023/12/07 00:43:38;;;;;;;35.33;24.63;;;2.20;99.90;;;;;;2090330;28;20047;-81
2023/12/07 00:44:42;;;;;;;34.78;24.70;;;2.30;99.90;;;;;;2097056;28;20504;-83
2023/12/07 00:45:42;;;;;;;33.95;24.98;;;2.20;99.90;;;;;;2093039;28;20400;-82
2023/12/07 00:46:43;;;;;;;34.53;24.67;;;2.30;99.90;;;;;;2092958;28;20199;-82
2023/12/07 00:47:43;;;;;;;34.78;25.25;;;2.30;99.90;;;;;;2093233;28;20234;-81
2023/12/07 00:48:44;;;;;;;42.10;29.40;;;2.30;99.90;;;;;;2084739;28;20078;-81
2023/12/07 00:49:44;;;;;;;39.92;28.60;;;2.30;99.90;;;;;;2092692;28;20034;-81
2023/12/07 00:50:45;;;;;;;40.63;27.88;;;2.30;99.90;;;;;;2096952;28;20039;-80
2023/12/07 00:51:45;;;;;;;36.13;25.50;;;2.30;99.90;;;;;;2094267;28;20117;-80
2023/12/07 00:52:46;;;;;;;36.72;25.83;;;2.30;99.90;;;;;;2093094;28;20097;-81
2023/12/07 00:53:46;;;;;;;34.63;24.95;;;2.30;99.90;;;;;;2091241;28;20377;-81
2023/12/07 00:54:47;;;;;;;34.50;25.10;;;2.30;99.90;;;;;;2096187;28;20028;-81
2023/12/07 00:55:47;;;;;;;34.80;25.15;;;2.40;99.90;;;;;;2080887;28;20037;-83
2023/12/07 00:56:48;;;;;;;34.22;24.48;;;2.30;99.90;;;;;;2088971;28;20037;-83
2023/12/07 00:57:48;;;;;;;36.25;25.67;;;2.30;99.90;;;;;;2093410;28;20574;-82
2023/12/07 00:58:49;;;;;;;34.58;24.80;;;2.30;99.90;;;;;;2093334;28;20115;-81
2023/12/07 00:59:50;;;;;;;33.85;24.80;;;2.30;99.90;;;;;;2096885;28;20091;-80
2023/12/07 01:00:51;;;;;;;36.85;25.70;;;2.30;99.90;;;;;;2093817;28;20126;-82
2023/12/07 01:01:51;;;;;;;33.88;25.20;;;2.30;99.90;;;;;;2094141;28;20036;-81
2023/12/07 01:02:52;;;;;;;34.20;24.80;;;2.30;99.90;;;;;;2098271;28;20032;-81
2023/12/07 01:03:52;;;;;;;35.67;25.35;;;2.30;99.90;;;;;;2097790;28;20048;-81
2023/12/07 01:04:53;;;;;;;35.90;25.77;;;2.30;99.90;;;;;;2093328;28;20098;-81
2023/12/07 01:05:54;;;;;;;34.42;25.33;;;2.30;99.90;;;;;;2085132;28;20033;-80
2023/12/07 01:06:55;;;;;;;35.78;25.95;;;2.30;99.90;;;;;;2097046;28;20034;-81
2023/12/07 01:07:56;;;;;;;37.05;26.42;;;2.30;99.90;;;;;;2096878;28;20280;-81
2023/12/07 01:08:56;;;;;;;35.47;24.92;;;2.30;99.90;;;;;;2088104;28;20171;-81
2023/12/07 01:09:57;;;;;;;40.92;28.20;;;2.30;99.90;;;;;;2090087;28;20112;-82
2023/12/07 01:10:57;;;;;;;35.03;24.73;;;2.20;99.90;;;;;;2097384;28;20123;-84
2023/12/07 01:11:58;;;;;;;36.10;25.98;;;2.20;99.90;;;;;;2081718;28;20069;-83
2023/12/07 01:12:58;;;;;;;37.03;25.20;;;2.20;99.90;;;;;;2088035;28;20535;-82
2023/12/07 01:13:59;;;;;;;36.88;26.10;;;2.20;99.90;;;;;;2087938;28;20090;-82
2023/12/07 01:14:59;;;;;;;37.13;26.40;;;2.20;99.90;;;;;;2096917;28;20028;-83
2023/12/07 01:16:00;;;;;;;37.22;26.95;;;2.20;99.90;;;;;;2094331;28;20034;-83
2023/12/07 01:17:00;;;;;;;38.38;27.58;;;2.30;99.90;;;;;;2096168;28;20024;-83
2023/12/07 01:18:01;;;;;;;38.20;27.27;;;2.20;99.90;;;;;;2097029;28;20097;-83
2023/12/07 01:19:02;;;;;;;36.60;26.05;;;2.20;99.90;;;;;;2093799;28;20394;-83
2023/12/07 01:20:03;;;;;;;38.13;26.73;;;2.30;99.90;;;;;;2094753;28;20107;-82
2023/12/07 01:21:05;;;;;;;35.33;25.80;;;2.20;99.90;;;;;;2096224;28;20031;-83
2023/12/07 01:22:06;;;;;;;36.53;26.50;;;2.30;99.90;;;;;;2094071;28;20052;-82
2023/12/07 01:23:08;;;;;;;36.28;26.10;;;2.30;99.90;;;;;;2094221;28;20040;-82
2023/12/07 01:24:09;;;;;;;35.83;25.50;;;2.30;99.90;;;;;;2087595;28;20506;-81
2023/12/07 01:25:10;;;;;;;34.70;25.25;;;2.30;99.90;;;;;;2094389;28;20100;-81
2023/12/07 01:26:10;;;;;;;37.03;26.15;;;2.30;99.90;;;;;;2094414;28;20443;-81
2023/12/07 01:27:11;;;;;;;34.42;24.95;;;2.30;99.90;;;;;;2096233;28;20054;-82
2023/12/07 01:28:11;;;;;;;37.05;26.23;;;2.30;99.90;;;;;;2094744;28;20426;-82
2023/12/07 01:29:13;;;;;;;37.67;25.25;;;2.30;99.90;;;;;;2093194;28;20034;-82
2023/12/07 01:30:14;;;;;;;37.05;26.25;;;2.30;99.90;;;;;;2091529;28;20039;-81
2023/12/07 01:31:14;;;;;;;35.85;25.65;;;2.30;99.90;;;;;;2093350;28;20044;-82
2023/12/07 01:32:16;;;;;;;37.85;26.15;;;2.30;99.90;;;;;;2091729;28;20028;-81
2023/12/07 01:33:16;;;;;;;40.78;27.33;;;2.30;99.90;;;;;;2087215;28;20534;-80
2023/12/07 01:34:18;;;;;;;36.92;26.13;;;2.20;99.90;;;;;;2084202;28;20029;-82
2023/12/07 01:35:19;;;;;;;36.22;26.13;;;2.20;99.90;;;;;;2083434;28;20376;-81
2023/12/07 01:36:20;;;;;;;36.33;26.17;;;2.20;99.90;;;;;;2088441;28;20035;-81
2023/12/07 01:37:21;;;;;;;36.30;25.52;;;2.20;99.90;;;;;;2095348;28;20024;-81
2023/12/07 01:38:21;;;;;;;37.25;25.50;;;2.20;99.90;;;;;;2093023;28;20022;-81
2023/12/07 01:39:22;;;;;;;35.17;25.35;;;2.20;99.90;;;;;;2095870;28;20275;-81
2023/12/07 01:40:23;;;;;;;37.95;26.73;;;2.30;99.90;;;;;;2083459;28;20037;-80
2023/12/07 01:41:23;;;;;;;34.47;25.48;;;2.30;99.90;;;;;;2091759;28;20021;-80
2023/12/07 01:42:24;;;;;;;38.08;25.90;;;2.30;99.90;;;;;;2096718;28;20077;-82
2023/12/07 01:43:24;;;;;;;35.75;25.30;;;2.30;99.90;;;;;;2096443;28;20028;-81
2023/12/07 01:44:27;;;;;;;37.05;26.35;;;2.30;99.90;;;;;;2092716;28;20043;-82
2023/12/07 01:45:28;;;;;;;35.97;25.85;;;2.30;99.90;;;;;;2096870;28;20051;-82
2023/12/07 01:46:28;;;;;;;36.50;26.10;;;2.30;99.90;;;;;;2092941;28;20051;-81
2023/12/07 01:47:30;;;;;;;37.05;26.48;;;2.30;99.90;;;;;;2093714;28;20115;-81
2023/12/07 01:48:31;;;;;;;35.58;25.80;;;2.30;99.90;;;;;;2095988;28;20040;-82
2023/12/07 01:49:32;;;;;;;35.67;25.90;;;2.30;99.90;;;;;;2092760;28;20136;-82
2023/12/07 01:50:33;;;;;;;34.90;25.00;;;2.30;99.90;;;;;;2094095;28;20108;-81
2023/12/07 01:51:34;;;;;;;35.17;24.98;;;2.30;99.90;;;;;;2095711;28;20035;-82
2023/12/07 01:52:45;;;;;;;36.70;26.20;;;2.30;99.90;;;;;;2096486;28;20051;-82
2023/12/07 01:53:48;;;;;;;36.28;26.05;;;2.30;99.90;;;;;;2096178;28;20355;-83
2023/12/07 01:54:48;;;;;;;36.22;25.77;;;2.30;99.90;;;;;;2097548;28;20032;-83
2023/12/07 01:55:50;;;;;;;37.03;26.58;;;2.30;99.90;;;;;;2091255;28;20032;-83
2023/12/07 01:56:52;;;;;;;37.08;26.15;;;2.30;99.90;;;;;;2092465;28;20649;-82
2023/12/07 01:57:52;;;;;;;39.03;26.27;;;2.30;99.90;;;;;;2102446;28;20105;-82
2023/12/07 01:58:53;;;;;;;36.70;26.63;;;2.30;99.90;;;;;;2099465;28;20052;-83
2023/12/07 01:59:54;;;;;;;37.30;26.55;;;2.30;99.90;;;;;;2092020;28;20029;-85
2023/12/07 02:00:55;;;;;;;37.42;26.33;;;2.30;99.90;;;;;;2095598;28;20115;-82
2023/12/07 02:01:56;;;;;;;36.10;25.85;;;2.40;99.90;;;;;;2083344;28;20287;-82
2023/12/07 02:02:57;;;;;;;36.22;25.73;;;2.30;99.90;;;;;;2083831;28;20491;-81
2023/12/07 02:03:57;;;;;;;36.00;25.70;;;2.30;99.90;;;;;;2083456;28;20430;-82
2023/12/07 02:04:58;;;;;;;36.45;25.75;;;2.30;99.90;;;;;;2087726;28;20044;-83
2023/12/07 02:05:59;;;;;;;38.72;27.05;;;2.30;99.90;;;;;;2084151;28;20028;-84
2023/12/07 02:07:01;;;;;;;36.97;25.88;;;2.20;99.90;;;;;;2087078;28;20029;-83
2023/12/07 02:08:02;;;;;;;37.42;26.40;;;2.30;99.90;;;;;;2095902;28;20024;-83
2023/12/07 02:09:03;;;;;;;36.88;26.73;;;2.30;99.90;;;;;;2088425;28;20108;-83
2023/12/07 02:10:04;;;;;;;36.20;25.90;;;2.30;99.90;;;;;;2093148;28;20043;-84
2023/12/07 02:11:04;;;;;;;36.53;26.65;;;2.20;99.90;;;;;;2095045;28;20060;-84
2023/12/07 02:12:05;;;;;;;38.75;26.77;;;2.20;99.90;;;;;;2088085;28;20107;-84
2023/12/07 02:13:06;;;;;;;37.03;26.48;;;2.30;99.90;;;;;;2092251;28;20198;-83
2023/12/07 02:14:06;;;;;;;35.97;26.25;;;2.30;99.90;;;;;;2095192;28;20029;-84
2023/12/07 02:15:08;;;;;;;38.45;26.55;;;2.30;99.90;;;;;;2086347;28;20141;-84
2023/12/07 02:16:21;;;;;;;37.50;26.65;;;2.30;99.90;;;;;;2085887;28;20098;-84
2023/12/07 02:17:26;;;;;;;38.03;25.95;;;2.30;99.90;;;;;;2094658;28;20417;-83
2023/12/07 02:18:43;;;;;;;38.05;27.05;;;2.30;99.90;;;;;;2087801;28;20241;-83
2023/12/07 02:20:00;;;;;;;37.53;26.23;;;2.30;99.90;;;;;;2085999;28;20025;-83
2023/12/07 02:21:12;;;;;;;38.13;26.85;;;2.30;99.90;;;;;;2089607;28;20038;-83
2023/12/07 02:22:21;;;;;;;39.45;27.25;;;2.30;99.90;;;;;;2093757;28;20545;-82
2023/12/07 02:23:23;;;;;;;38.35;27.10;;;2.30;99.90;;;;;;2093158;28;20039;-81
2023/12/07 02:24:27;;;;;;;38.40;26.98;;;2.30;99.90;;;;;;2095998;28;20394;-81
2023/12/07 02:25:35;;;;;;;39.35;27.27;;;2.30;99.90;;;;;;2096055;28;20028;-81
2023/12/07 02:26:37;;;;;;;35.50;25.98;;;2.30;99.90;;;;;;2091364;28;20093;-82
2023/12/07 02:27:40;;;;;;;40.17;27.38;;;2.30;99.90;;;;;;2096943;28;20487;-82
2023/12/07 02:28:40;;;;;;;38.95;26.75;;;2.40;99.90;;;;;;2095892;28;20033;-82
2023/12/07 02:29:41;;;;;;;39.90;27.60;;;2.40;99.90;;;;;;2095561;28;20019;-82
2023/12/07 02:30:42;;;;;;;38.83;27.33;;;2.40;99.90;;;;;;2093369;28;20071;-77
2023/12/07 02:31:43;;;;;;;40.97;28.40;;;2.40;99.90;;;;;;2093882;28;20082;-83
2023/12/07 02:32:45;;;;;;;39.40;27.90;;;2.40;99.90;;;;;;2097451;28;20040;-83
2023/12/07 02:33:46;;;;;;;40.33;27.10;;;2.40;99.90;;;;;;2092732;28;20017;-83
2023/12/07 02:34:47;;;;;;;39.08;26.88;;;2.40;99.90;;;;;;2092294;28;20040;-83
2023/12/07 02:35:47;;;;;;;37.20;26.63;;;2.40;99.90;;;;;;2096560;28;20040;-83
2023/12/07 02:36:51;;;;;;;39.25;27.40;;;2.40;99.90;;;;;;2095949;28;20216;-83
2023/12/07 02:37:53;;;;;;;38.67;26.95;;;2.40;99.90;;;;;;2095549;28;20510;-82
2023/12/07 02:38:56;;;;;;;38.40;27.42;;;2.40;99.90;;;;;;2092639;28;20028;-83
2023/12/07 02:39:57;;;;;;;37.72;27.25;;;2.40;99.90;;;;;;2092511;28;20020;-83
2023/12/07 02:40:59;;;;;;;40.13;28.02;;;2.40;99.90;;;;;;2095282;28;20501;-83
2023/12/07 02:42:01;;;;;;;39.72;28.00;;;2.40;99.90;;;;;;2091361;28;20043;-81
2023/12/07 02:43:03;;;;;;;39.30;27.67;;;2.40;99.90;;;;;;2079452;28;20482;-82
2023/12/07 02:44:03;;;;;;;38.92;26.70;;;2.40;99.90;;;;;;2095466;28;20591;-82
2023/12/07 02:45:05;;;;;;;37.70;27.00;;;2.40;99.90;;;;;;2083003;28;20087;-83
2023/12/07 02:46:06;;;;;;;38.00;26.77;;;2.40;99.90;;;;;;2092100;28;20043;-83
2023/12/07 02:47:07;;;;;;;38.63;27.42;;;2.40;99.90;;;;;;2090392;28;20063;-83
2023/12/07 02:48:07;;;;;;;37.97;26.33;;;2.40;99.90;;;;;;2082266;28;20100;-83
2023/12/07 02:49:08;;;;;;;37.17;26.48;;;2.40;99.90;;;;;;2099880;28;20414;-83
2023/12/07 02:50:09;;;;;;;37.88;26.98;;;2.40;99.90;;;;;;2099838;28;20093;-83
2023/12/07 02:51:09;;;;;;;38.42;26.98;;;2.50;99.90;;;;;;2096260;28;20058;-83
2023/12/07 02:52:10;;;;;;;39.00;27.70;;;2.40;99.90;;;;;;2091804;28;20083;-83
2023/12/07 02:53:11;;;;;;;37.75;26.25;;;2.40;99.90;;;;;;2094212;28;20069;-83
2023/12/07 02:54:11;;;;;;;37.15;26.13;;;2.50;99.90;;;;;;2096232;28;20184;-84
2023/12/07 02:55:12;;;;;;;38.40;26.83;;;2.50;99.90;;;;;;2092772;28;20531;-83
2023/12/07 02:56:12;;;;;;;36.85;26.15;;;2.40;99.90;;;;;;2092416;28;20063;-83
2023/12/07 02:57:14;;;;;;;37.97;26.77;;;2.50;99.90;;;;;;2092800;28;20031;-83
2023/12/07 02:58:15;;;;;;;39.35;27.25;;;2.40;99.90;;;;;;2084843;28;20029;-82
2023/12/07 02:59:15;;;;;;;36.35;26.00;;;2.40;99.90;;;;;;2093419;28;20776;-81
2023/12/07 03:00:16;;;;;;;36.53;26.30;;;2.50;99.90;;;;;;2095770;28;20081;-81
2023/12/07 03:01:16;;;;;;;37.38;26.42;;;2.50;99.90;;;;;;2094467;28;20029;-82
2023/12/07 03:02:17;;;;;;;37.45;25.80;;;2.50;99.90;;;;;;2093777;28;20045;-81
2023/12/07 03:03:17;;;;;;;36.65;25.10;;;2.50;99.90;;;;;;2095141;28;20047;-82
2023/12/07 03:04:18;;;;;;;38.85;26.65;;;2.50;99.90;;;;;;2095385;28;20031;-82
2023/12/07 03:05:20;;;;;;;36.50;26.15;;;2.50;99.90;;;;;;2091322;28;20060;-84
2023/12/07 03:06:20;;;;;;;38.17;26.35;;;2.50;99.90;;;;;;2090208;28;20033;-82
2023/12/07 03:07:21;;;;;;;35.53;25.73;;;2.50;99.90;;;;;;2093913;28;20498;-81
2023/12/07 03:08:21;;;;;;;37.55;26.52;;;2.50;99.90;;;;;;2094163;28;20545;-82
2023/12/07 03:09:22;;;;;;;40.92;27.08;;;2.50;99.90;;;;;;2089481;28;20092;-81
2023/12/07 03:10:22;;;;;;;37.20;27.02;;;2.50;99.90;;;;;;2095859;28;20037;-81
2023/12/07 03:11:24;;;;;;;39.70;27.10;;;2.50;99.90;;;;;;2094524;28;20025;-80
2023/12/07 03:12:24;;;;;;;38.70;27.13;;;2.50;99.90;;;;;;2092313;28;20016;-81
2023/12/07 03:13:25;;;;;;;38.30;26.45;;;2.50;99.90;;;;;;2095053;28;20029;-74
2023/12/07 03:14:25;;;;;;;37.53;26.52;;;2.50;99.90;;;;;;2089195;28;20036;-72
2023/12/07 03:15:26;;;;;;;38.83;27.48;;;2.60;99.90;;;;;;2076145;28;20084;-83
2023/12/07 03:16:26;;;;;;;38.15;27.23;;;2.60;99.90;;;;;;2082892;28;20040;-78
2023/12/07 03:17:27;;;;;;;40.70;27.40;;;2.60;99.90;;;;;;2093772;28;20027;-83
2023/12/07 03:18:27;;;;;;;38.08;27.33;;;2.60;99.90;;;;;;2092538;28;20047;-82
2023/12/07 03:19:28;;;;;;;39.65;27.13;;;2.60;99.90;;;;;;2095643;28;20513;-82
2023/12/07 03:20:28;;;;;;;40.83;27.63;;;2.60;99.90;;;;;;2094329;28;20035;-80
2023/12/07 03:21:29;;;;;;;40.47;27.15;;;2.60;99.90;;;;;;2091523;28;20024;-81
2023/12/07 03:22:29;;;;;;;38.55;26.95;;;2.60;99.90;;;;;;2094846;28;20099;-82
2023/12/07 03:23:30;;;;;;;39.13;26.90;;;2.60;99.90;;;;;;2095682;28;20108;-83
2023/12/07 03:24:30;;;;;;;39.83;27.20;;;2.60;99.90;;;;;;2092366;28;20029;-83
2023/12/07 03:25:31;;;;;;;40.00;27.52;;;2.60;99.90;;;;;;2096209;28;20005;-84
2023/12/07 03:26:31;;;;;;;40.45;27.63;;;2.60;99.90;;;;;;2096050;28;20031;-83
2023/12/07 03:27:32;;;;;;;42.50;28.45;;;2.60;99.90;;;;;;2092118;28;20029;-84
2023/12/07 03:28:33;;;;;;;40.67;28.05;;;2.60;99.90;;;;;;2095853;28;20028;-82
2023/12/07 03:29:33;;;;;;;43.45;28.65;;;2.70;99.90;;;;;;2095664;28;20025;-83
2023/12/07 03:30:33;;;;;;;43.25;28.50;;;2.60;99.90;;;;;;2090842;28;20382;-82
2023/12/07 03:31:34;;;;;;;44.33;29.00;;;2.60;99.90;;;;;;2093220;28;20509;-83
2023/12/07 03:32:35;;;;;;;41.58;27.35;;;2.70;99.90;;;;;;2087876;28;20037;-84
2023/12/07 03:33:36;;;;;;;42.67;28.58;;;2.60;99.90;;;;;;2090963;28;20013;-82
2023/12/07 03:34:36;;;;;;;43.97;29.10;;;2.70;99.90;;;;;;2078650;28;20072;-83
2023/12/07 03:35:37;;;;;;;49.40;31.30;;;2.70;99.90;;;;;;2088538;28;20494;-81
2023/12/07 03:36:39;;;;;;;54.65;34.17;;;2.70;99.90;;;;;;2093515;28;20455;-82
2023/12/07 03:37:39;;;;;;;59.35;38.03;;;2.60;99.90;;;;;;2096210;28;20119;-81
2023/12/07 03:38:40;;;;;;;59.30;36.78;;;2.70;99.90;;;;;;2098978;28;20028;-83
2023/12/07 03:39:40;;;;;;;52.50;33.88;;;2.70;99.90;;;;;;2089388;28;20115;-82
2023/12/07 03:40:41;;;;;;;71.03;40.78;;;2.60;99.90;;;;;;2082960;28;20021;-80
2023/12/07 03:41:41;;;;;;;71.93;41.58;;;2.60;99.90;;;;;;2093902;28;20066;-80
2023/12/07 03:42:42;;;;;;;68.70;39.92;;;2.60;99.90;;;;;;2096690;28;20443;-81
2023/12/07 03:43:42;;;;;;;70.53;41.58;;;2.60;99.90;;;;;;2092613;28;20024;-82
2023/12/07 03:44:43;;;;;;;64.13;37.85;;;2.70;99.90;;;;;;2094817;28;20119;-82
2023/12/07 03:45:44;;;;;;;68.28;39.72;;;2.70;99.90;;;;;;2096424;28;20027;-82
2023/12/07 03:46:44;;;;;;;68.45;39.88;;;2.70;99.90;;;;;;2095788;28;20460;-81
2023/12/07 03:47:45;;;;;;;66.78;39.72;;;2.70;99.90;;;;;;2097418;28;20031;-82
2023/12/07 03:48:45;;;;;;;64.32;38.08;;;2.70;99.90;;;;;;2094877;28;20028;-82
2023/12/07 03:49:46;;;;;;;61.97;37.03;;;2.60;99.90;;;;;;2095102;28;20025;-80
2023/12/07 03:50:46;;;;;;;63.50;35.90;;;2.60;99.90;;;;;;2095829;28;20101;-82
2023/12/07 03:51:47;;;;;;;57.20;35.75;;;2.70;99.90;;;;;;2096765;28;20544;-82
2023/12/07 03:52:48;;;;;;;58.97;35.70;;;2.60;99.90;;;;;;2092632;28;20889;-83
2023/12/07 03:53:48;;;;;;;55.47;33.95;;;2.60;99.90;;;;;;2092900;28;20465;-82
2023/12/07 03:54:49;;;;;;;52.85;33.50;;;2.60;99.90;;;;;;2088216;28;20413;-83
2023/12/07 03:55:49;;;;;;;53.83;33.72;;;2.50;99.90;;;;;;2090409;28;20400;-83
2023/12/07 03:56:50;;;;;;;59.22;35.17;;;2.60;99.90;;;;;;2092953;28;20028;-83
2023/12/07 03:57:50;;;;;;;56.40;33.90;;;2.60;99.90;;;;;;2095440;28;20017;-83
2023/12/07 03:58:51;;;;;;;52.05;33.97;;;2.60;99.90;;;;;;2097796;28;20031;-83
2023/12/07 03:59:53;;;;;;;52.03;33.00;;;2.60;99.90;;;;;;2096230;28;20046;-83
2023/12/07 04:00:54;;;;;;;55.95;33.83;;;2.60;99.90;;;;;;2095363;28;20576;-82
2023/12/07 04:01:54;;;;;;;63.92;36.20;;;2.60;99.90;;;;;;2094152;28;20035;-82
2023/12/07 04:02:55;;;;;;;75.53;39.00;;;2.60;99.90;;;;;;2091580;28;20105;-82
2023/12/07 04:03:56;;;;;;;71.50;37.92;;;2.60;99.90;;;;;;2092891;28;20146;-83
2023/12/07 04:05:01;;;;;;;68.80;37.47;;;2.60;99.90;;;;;;2098092;28;20036;-83
2023/12/07 04:06:02;;;;;;;66.65;36.90;;;2.60;99.90;;;;;;2099775;28;20020;-84
2023/12/07 04:07:02;;;;;;;82.43;40.78;;;2.60;99.90;;;;;;2100402;28;20032;-82
2023/12/07 04:08:05;;;;;;;83.63;41.28;;;2.70;99.90;;;;;;2092681;28;20040;-83
2023/12/07 04:09:05;;;;;;;66.75;36.40;;;2.60;99.90;;;;;;2090234;28;20042;-83
2023/12/07 04:10:06;;;;;;;70.50;37.00;;;2.60;99.90;;;;;;2097999;28;20028;-85
2023/12/07 04:11:07;;;;;;;68.35;36.88;;;2.60;99.90;;;;;;2093981;28;20514;-83
2023/12/07 04:12:08;;;;;;;75.43;36.83;;;2.60;99.90;;;;;;2098279;28;20024;-83
2023/12/07 04:13:08;;;;;;;72.85;38.50;;;2.70;99.90;;;;;;2093696;28;20068;-83
2023/12/07 04:14:09;;;;;;;79.18;39.28;;;2.60;99.90;;;;;;2089572;28;20029;-83
2023/12/07 04:15:10;;;;;;;78.10;38.28;;;2.70;99.90;;;;;;2097162;28;20549;-84
2023/12/07 04:16:11;;;;;;;73.53;37.65;;;2.70;99.90;;;;;;2091018;28;20033;-82
2023/12/07 04:17:11;;;;;;;73.95;38.75;;;2.70;99.90;;;;;;2096938;28;20440;-83
2023/12/07 04:18:12;;;;;;;70.18;38.08;;;2.60;99.90;;;;;;2098026;28;20024;-83
2023/12/07 04:19:12;;;;;;;73.60;38.22;;;2.70;99.90;;;;;;2094594;28;20094;-82
2023/12/07 04:20:13;;;;;;;76.55;38.60;;;2.70;99.90;;;;;;2096996;28;20094;-83
2023/12/07 04:21:13;;;;;;;73.55;37.03;;;2.70;99.90;;;;;;2097389;28;20039;-83
2023/12/07 04:22:14;;;;;;;69.85;37.10;;;2.70;99.90;;;;;;2089427;28;20036;-83
2023/12/07 04:23:14;;;;;;;71.63;38.67;;;2.60;99.90;;;;;;2095618;28;20055;-83
2023/12/07 04:24:15;;;;;;;65.20;36.00;;;2.60;99.90;;;;;;2097555;28;20020;-81
2023/12/07 04:25:15;;;;;;;69.63;36.72;;;2.60;99.90;;;;;;2094892;28;20032;-81
2023/12/07 04:26:16;;;;;;;64.72;35.35;;;2.60;99.90;;;;;;2096374;28;20036;-82
2023/12/07 04:27:16;;;;;;;62.83;35.85;;;2.70;99.90;;;;;;2093736;28;20146;-79
2023/12/07 04:28:17;;;;;;;55.13;32.97;;;2.60;99.90;;;;;;2094401;28;20032;-79
2023/12/07 04:29:18;;;;;;;60.38;34.83;;;2.60;99.90;;;;;;2095545;28;20485;-81
2023/12/07 04:30:18;;;;;;;62.78;38.10;;;2.70;99.90;;;;;;2096851;28;20012;-81
2023/12/07 04:31:19;;;;;;;60.35;36.60;;;2.60;99.90;;;;;;2096344;28;20039;-81
2023/12/07 04:32:20;;;;;;;56.55;34.20;;;2.70;99.90;;;;;;2090637;28;20043;-82
2023/12/07 04:33:20;;;;;;;55.33;35.33;;;2.60;99.90;;;;;;2095242;28;20036;-83
2023/12/07 04:34:21;;;;;;;56.03;35.28;;;2.70;99.90;;;;;;2097256;28;20032;-81
2023/12/07 04:35:21;;;;;;;55.90;34.45;;;2.70;99.90;;;;;;2095244;28;20024;-81
2023/12/07 04:36:22;;;;;;;48.10;30.23;;;2.70;99.90;;;;;;2094915;28;20017;-81
2023/12/07 04:37:23;;;;;;;47.97;31.08;;;2.70;99.90;;;;;;2093917;28;20062;-80
2023/12/07 04:38:23;;;;;;;51.63;31.83;;;2.70;99.90;;;;;;2096159;28;20039;-81
2023/12/07 04:39:24;;;;;;;48.03;29.83;;;2.60;99.90;;;;;;2095128;28;20044;-82
2023/12/07 04:40:25;;;;;;;48.33;31.35;;;2.60;99.90;;;;;;2093948;28;20585;-82
2023/12/07 04:41:26;;;;;;;49.35;32.63;;;2.60;99.90;;;;;;2080471;28;20911;-82
2023/12/07 04:42:26;;;;;;;49.47;32.40;;;2.60;99.90;;;;;;2095950;28;20083;-82
2023/12/07 04:43:27;;;;;;;46.28;30.67;;;2.60;99.90;;;;;;2095320;28;20036;-80
2023/12/07 04:44:28;;;;;;;44.58;30.27;;;2.60;99.90;;;;;;2094059;28;20031;-81
2023/12/07 04:45:28;;;;;;;45.35;29.63;;;2.70;99.90;;;;;;2092817;28;20093;-81
2023/12/07 04:46:29;;;;;;;42.53;28.50;;;2.70;99.90;;;;;;2092532;28;20055;-80
2023/12/07 04:47:30;;;;;;;42.15;28.02;;;2.70;99.90;;;;;;2092581;28;20061;-81
2023/12/07 04:48:30;;;;;;;44.53;29.15;;;2.80;99.90;;;;;;2096991;28;20044;-80
2023/12/07 04:49:31;;;;;;;44.20;28.15;;;2.80;99.90;;;;;;2096438;28;20108;-80
2023/12/07 04:50:31;;;;;;;43.63;28.20;;;2.70;99.90;;;;;;2093536;28;20479;-82
2023/12/07 04:51:32;;;;;;;44.08;28.63;;;2.70;99.90;;;;;;2096946;28;20056;-82
2023/12/07 04:52:32;;;;;;;44.33;28.80;;;2.70;99.90;;;;;;2096615;28;20513;-82
2023/12/07 04:53:33;;;;;;;42.53;28.30;;;2.70;99.90;;;;;;2090242;28;20052;-81
2023/12/07 04:54:33;;;;;;;42.70;28.25;;;2.70;99.90;;;;;;2096709;28;20470;-82
2023/12/07 04:55:34;;;;;;;43.65;28.23;;;2.80;99.90;;;;;;2097088;28;20483;-82
2023/12/07 04:56:34;;;;;;;41.00;27.75;;;2.70;99.90;;;;;;2093044;28;20044;-82
2023/12/07 04:57:35;;;;;;;42.42;28.33;;;2.80;99.90;;;;;;2093704;28;20025;-82
2023/12/07 04:58:36;;;;;;;40.40;27.52;;;2.70;99.90;;;;;;2100820;28;20134;-82
2023/12/07 04:59:37;;;;;;;42.97;27.52;;;2.70;99.90;;;;;;2096421;28;20081;-82
2023/12/07 05:00:37;;;;;;;41.72;27.42;;;2.70;99.90;;;;;;2088690;28;20029;-80
2023/12/07 05:01:38;;;;;;;43.22;27.85;;;2.80;99.90;;;;;;2087562;28;20029;-81
2023/12/07 05:02:39;;;;;;;42.53;28.23;;;2.80;99.90;;;;;;2088639;28;20025;-81
2023/12/07 05:03:39;;;;;;;40.95;27.48;;;2.80;99.90;;;;;;2093193;28;20086;-82
2023/12/07 05:04:40;;;;;;;43.80;28.95;;;2.80;99.90;;;;;;2096397;28;20044;-82
2023/12/07 05:05:40;;;;;;;43.30;27.90;;;2.80;99.90;;;;;;2104603;28;20050;-82
2023/12/07 05:06:41;;;;;;;43.25;27.90;;;2.80;99.90;;;;;;2100789;28;20016;-84
2023/12/07 05:07:41;;;;;;;43.35;28.08;;;2.80;99.90;;;;;;2108515;28;20024;-82
2023/12/07 05:08:43;;;;;;;48.75;30.67;;;2.80;99.90;;;;;;2097618;28;20111;-83
2023/12/07 05:09:43;;;;;;;46.35;29.25;;;2.80;99.90;;;;;;2093308;28;20060;-83
2023/12/07 05:10:44;;;;;;;41.30;27.58;;;2.80;99.90;;;;;;2095631;28;20012;-84
2023/12/07 05:11:45;;;;;;;41.35;27.75;;;2.80;99.90;;;;;;2097126;28;20053;-83
2023/12/07 05:12:46;;;;;;;42.55;28.35;;;2.80;99.90;;;;;;2094190;28;20024;-84